createdAt,value
2023-04-24T00:00:48.012Z,65.82
2023-04-24T00:03:29.003Z,67.29
2023-04-24T00:05:57.488Z,67.70
2023-04-24T00:08:25.337Z,67.07
2023-04-24T00:10:54.220Z,65.91
2023-04-24T00:13:21.990Z,66.49
2023-04-24T00:15:49.925Z,67.95
2023-04-24T00:18:17.986Z,69.06
2023-04-24T00:20:45.795Z,65.22
2023-04-24T00:23:13.898Z,65.22
2023-04-24T00:25:41.867Z,67.13
2023-04-24T00:28:09.660Z,67.65
2023-04-24T00:30:37.445Z,68.80
2023-04-24T00:33:05.349Z,67.70
2023-04-24T00:35:33.181Z,69.70
2023-04-24T00:38:01.304Z,68.31
2023-04-24T00:40:29.474Z,68.44
2023-04-24T00:42:57.664Z,69.05
2023-04-24T00:45:25.969Z,67.88
2023-04-24T00:47:54.689Z,69.56
2023-04-24T00:50:23.070Z,71.39
2023-04-24T00:52:52.138Z,70.80
2023-04-24T00:55:19.983Z,70.01
2023-04-24T00:57:49.730Z,72.19
2023-04-24T01:00:18.274Z,70.24
2023-04-24T01:02:47.192Z,68.25
2023-04-24T01:05:16.577Z,72.98
2023-04-24T01:07:46.753Z,70.59
2023-04-24T01:10:15.781Z,70.08
2023-04-24T01:12:43.624Z,68.24
2023-04-24T01:15:13.512Z,69.77
2023-04-24T01:17:43.095Z,69.49
2023-04-24T01:20:11.761Z,68.00
2023-04-24T01:22:39.537Z,69.80
2023-04-24T01:25:07.971Z,70.84
2023-04-24T01:27:35.887Z,68.94
2023-04-24T01:30:04.460Z,69.48
2023-04-24T01:32:32.467Z,72.55
2023-04-24T01:35:00.610Z,71.03
2023-04-24T01:37:28.420Z,70.17
2023-04-24T01:39:56.469Z,71.96
2023-04-24T01:42:24.637Z,71.43
2023-04-24T01:44:52.772Z,69.78
2023-04-24T01:47:21.046Z,71.23
2023-04-24T01:49:49.577Z,71.55
2023-04-24T01:52:18.804Z,71.07
2023-04-24T01:54:46.549Z,71.78
2023-04-24T01:57:15.646Z,71.58
2023-04-24T01:59:43.839Z,72.62
2023-04-24T02:02:11.758Z,71.36
2023-04-24T02:04:40.484Z,72.07
2023-04-24T02:07:09.195Z,70.61
2023-04-24T02:09:36.950Z,69.63
2023-04-24T02:12:04.655Z,71.85
2023-04-24T02:14:32.507Z,70.98
2023-04-24T02:17:00.275Z,72.20
2023-04-24T02:19:28.050Z,72.29
2023-04-24T02:21:55.884Z,72.62
2023-04-24T02:24:23.734Z,71.78
2023-04-24T02:26:51.955Z,73.77
2023-04-24T02:29:19.737Z,72.32
2023-04-24T02:31:47.487Z,73.03
2023-04-24T02:34:15.883Z,71.70
2023-04-24T02:36:43.871Z,71.38
2023-04-24T02:39:11.610Z,72.58
2023-04-24T02:41:40.328Z,73.89
2023-04-24T02:44:08.120Z,74.05
2023-04-24T02:46:35.839Z,73.75
2023-04-24T02:49:03.646Z,74.64
2023-04-24T02:51:31.957Z,74.64
2023-04-24T02:53:59.781Z,75.32
2023-04-24T02:56:27.830Z,75.26
2023-04-24T02:58:56.496Z,75.02
2023-04-24T03:01:24.321Z,74.74
2023-04-24T03:03:52.313Z,75.15
2023-04-24T03:06:20.185Z,76.13
2023-04-24T03:08:48.517Z,75.95
2023-04-24T03:11:16.353Z,75.52
2023-04-24T03:13:44.078Z,75.58
2023-04-24T03:16:12.012Z,73.52
2023-04-24T03:18:39.936Z,74.95
2023-04-24T03:21:08.146Z,73.07
2023-04-24T03:23:36.204Z,75.74
2023-04-24T03:26:04.073Z,75.38
2023-04-24T03:28:32.062Z,75.23
2023-04-24T03:31:02.137Z,75.79
2023-04-24T03:33:33.129Z,76.06
2023-04-24T03:36:02.817Z,73.55
2023-04-24T03:38:37.629Z,73.82
2023-04-24T03:41:20.105Z,75.51
2023-04-24T03:43:51.499Z,74.40
2023-04-24T03:46:19.308Z,73.63
2023-04-24T03:48:52.910Z,73.26
2023-04-24T03:51:22.931Z,74.62
2023-04-24T03:53:52.120Z,75.69
2023-04-24T03:56:22.000Z,76.62
2023-04-24T03:58:49.980Z,75.21
2023-04-24T04:01:18.284Z,74.45
2023-04-24T04:03:53.585Z,74.20
2023-04-24T04:06:24.072Z,73.71
2023-04-24T04:08:53.329Z,72.58
2023-04-24T04:11:21.124Z,72.60
2023-04-24T04:13:49.073Z,72.01
2023-04-24T04:16:18.504Z,72.09
2023-04-24T04:18:46.418Z,72.49
2023-04-24T04:21:14.399Z,71.68
2023-04-24T04:23:42.829Z,72.38
2023-04-24T04:26:15.948Z,72.03
2023-04-24T04:28:54.145Z,71.85
2023-04-24T04:31:22.103Z,71.08
2023-04-24T04:33:50.697Z,71.19
2023-04-24T04:36:18.444Z,70.86
2023-04-24T04:38:48.428Z,70.50
2023-04-24T04:41:42.138Z,70.43
2023-04-24T04:44:11.856Z,70.23
2023-04-24T04:46:39.888Z,70.28
2023-04-24T04:49:17.795Z,70.25
2023-04-24T04:51:46.862Z,70.02
2023-04-24T04:54:14.893Z,69.25
2023-04-24T04:56:42.704Z,68.96
2023-04-24T04:59:12.170Z,68.84
2023-04-24T05:01:42.278Z,68.81
2023-04-24T05:04:11.689Z,69.04
2023-04-24T05:06:39.672Z,68.57
2023-04-24T05:09:08.519Z,68.47
2023-04-24T05:11:52.259Z,68.23
2023-04-24T05:14:20.122Z,67.98
2023-04-24T05:16:47.846Z,67.80
2023-04-24T05:19:15.817Z,67.32
2023-04-24T05:21:43.681Z,66.95
2023-04-24T05:24:12.204Z,66.55
2023-04-24T05:26:59.646Z,66.37
2023-04-24T05:29:32.755Z,66.60
2023-04-24T05:32:01.996Z,65.97
2023-04-24T05:34:31.147Z,65.18
2023-04-24T05:36:59.666Z,64.76
2023-04-24T05:39:27.786Z,64.41
2023-04-24T05:41:59.290Z,63.90
2023-04-24T05:44:27.145Z,63.73
2023-04-24T05:46:56.600Z,63.88
2023-04-24T05:49:24.785Z,63.80
2023-04-24T05:51:52.843Z,63.33
2023-04-24T05:54:20.610Z,63.47
2023-04-24T05:56:48.505Z,63.06
2023-04-24T05:59:20.829Z,62.53
2023-04-24T06:01:49.324Z,62.10
2023-04-24T06:04:19.765Z,62.23
2023-04-24T06:06:51.733Z,61.36
2023-04-24T06:09:19.636Z,60.82
2023-04-24T06:11:47.613Z,59.94
2023-04-24T06:14:15.576Z,59.68
2023-04-24T06:17:03.826Z,59.66
2023-04-24T06:19:36.298Z,59.06
2023-04-24T06:22:04.700Z,58.34
2023-04-24T06:24:32.889Z,58.30
2023-04-24T06:27:01.555Z,57.53
2023-04-24T06:29:29.464Z,56.83
2023-04-24T06:31:57.275Z,56.40
2023-04-24T06:34:25.101Z,56.51
2023-04-24T06:36:52.965Z,55.71
2023-04-24T06:39:20.819Z,55.83
2023-04-24T06:41:48.739Z,56.17
2023-04-24T06:44:20.881Z,55.70
2023-04-24T06:46:48.720Z,55.99
2023-04-24T06:49:17.246Z,55.78
2023-04-24T06:51:45.086Z,54.88
2023-04-24T06:54:12.838Z,54.51
2023-04-24T06:56:40.795Z,54.12
2023-04-24T06:59:08.543Z,54.31
2023-04-24T07:01:36.405Z,53.90
2023-04-24T07:04:04.358Z,54.47
2023-04-24T07:06:32.770Z,54.01
2023-04-24T07:09:01.348Z,53.96
2023-04-24T07:11:30.401Z,54.05
2023-04-24T07:13:58.251Z,53.94
2023-04-24T07:16:26.914Z,54.20
2023-04-24T07:18:54.688Z,54.17
2023-04-24T07:21:22.453Z,53.64
2023-04-24T07:23:50.318Z,53.15
2023-04-24T07:26:18.303Z,53.17
2023-04-24T07:28:46.407Z,53.33
2023-04-24T07:31:15.903Z,53.39
2023-04-24T07:33:43.785Z,53.61
2023-04-24T07:36:16.445Z,52.75
2023-04-24T07:38:44.303Z,52.94
2023-04-24T07:41:12.733Z,52.99
2023-04-24T07:43:40.617Z,53.19
2023-04-24T07:46:09.452Z,52.95
2023-04-24T07:48:37.925Z,52.47
2023-04-24T07:51:05.742Z,51.59
2023-04-24T07:53:33.541Z,51.87
2023-04-24T07:56:01.254Z,51.70
2023-04-24T07:58:29.177Z,51.68
2023-04-24T08:00:56.940Z,50.07
2023-04-24T08:03:26.002Z,50.53
2023-04-24T08:05:54.031Z,50.91
2023-04-24T08:08:23.083Z,50.35
2023-04-24T08:10:51.528Z,50.50
2023-04-24T08:13:19.248Z,51.15
2023-04-24T08:15:47.515Z,49.62
2023-04-24T08:18:16.758Z,49.54
2023-04-24T08:20:44.836Z,48.85
2023-04-24T08:23:12.558Z,49.89
2023-04-24T08:25:40.609Z,49.08
2023-04-24T08:28:10.761Z,48.17
2023-04-24T08:30:39.520Z,47.99
2023-04-24T08:33:08.278Z,47.62
2023-04-24T08:35:36.386Z,46.78
2023-04-24T08:38:04.132Z,47.15
2023-04-24T08:40:35.706Z,46.07
2023-04-24T08:43:05.991Z,45.84
2023-04-24T08:45:34.478Z,46.38
2023-04-24T08:48:03.782Z,45.72
2023-04-24T08:50:32.947Z,45.81
2023-04-24T08:53:03.477Z,45.55
2023-04-24T08:55:34.404Z,45.92
2023-04-24T08:58:03.601Z,46.76
2023-04-24T09:00:32.279Z,47.06
2023-04-24T09:03:02.951Z,46.54
2023-04-24T09:05:31.503Z,45.83
2023-04-24T09:08:02.403Z,45.43
2023-04-24T09:10:31.636Z,45.46
2023-04-24T09:13:02.344Z,45.09
2023-04-24T09:15:30.439Z,45.24
2023-04-24T09:17:58.552Z,45.31
2023-04-24T09:20:26.506Z,44.98
2023-04-24T09:23:00.703Z,44.61
2023-04-24T09:25:37.074Z,44.03
2023-04-24T09:28:06.859Z,43.92
2023-04-24T09:30:34.629Z,43.90
2023-04-24T09:33:16.611Z,43.78
2023-04-24T09:35:53.443Z,41.46
2023-04-24T09:38:32.762Z,40.57
2023-04-24T09:41:06.025Z,38.90
2023-04-24T09:43:34.559Z,38.16
2023-04-24T09:46:08.439Z,38.40
2023-04-24T09:48:38.610Z,37.77
2023-04-24T09:51:16.961Z,37.46
2023-04-24T09:53:48.442Z,36.12
2023-04-24T09:56:16.822Z,34.72
2023-04-24T09:58:44.591Z,35.46
2023-04-24T10:01:12.592Z,34.26
2023-04-24T10:03:43.657Z,33.89
2023-04-24T10:06:12.815Z,34.79
2023-04-24T10:08:40.735Z,35.27
2023-04-24T10:11:08.898Z,35.62
2023-04-24T10:13:37.128Z,36.02
2023-04-24T10:16:05.512Z,36.40
2023-04-24T10:18:33.816Z,36.76
2023-04-24T10:21:02.388Z,37.77
2023-04-24T10:23:31.304Z,37.45
2023-04-24T10:25:59.967Z,37.74
2023-04-24T10:28:29.391Z,37.37
2023-04-24T10:30:58.271Z,36.82
2023-04-24T10:33:27.657Z,37.49
2023-04-24T10:35:56.503Z,36.85
2023-04-24T10:38:28.037Z,36.21
2023-04-24T10:41:09.450Z,34.88
2023-04-24T10:43:37.720Z,33.94
2023-04-24T10:46:07.305Z,32.76
2023-04-24T10:48:35.506Z,33.50
2023-04-24T10:51:03.478Z,30.18
2023-04-24T10:53:31.828Z,29.32
2023-04-24T10:55:59.499Z,29.16
2023-04-24T10:58:53.500Z,28.99
2023-04-24T11:01:30.500Z,30.09
2023-04-24T11:04:04.272Z,29.10
2023-04-24T11:06:36.082Z,28.46
2023-04-24T11:09:08.720Z,27.97
2023-04-24T11:11:38.532Z,27.64
2023-04-24T11:14:08.032Z,28.07
2023-04-24T11:16:52.299Z,28.09
2023-04-24T11:19:25.450Z,27.28
2023-04-24T11:21:57.243Z,27.04
2023-04-24T11:24:38.252Z,27.07
2023-04-24T11:27:14.843Z,27.41
2023-04-24T11:29:58.145Z,26.62
2023-04-24T11:32:42.815Z,26.75
2023-04-24T11:35:26.217Z,26.46
2023-04-24T11:40:26.815Z,26.42
2023-04-24T11:42:58.390Z,26.13
2023-04-24T11:45:29.114Z,25.58
2023-04-24T11:47:58.106Z,25.78
2023-04-24T11:50:29.556Z,26.49
2023-04-24T11:52:57.771Z,26.33
2023-04-24T11:55:29.905Z,25.32
2023-04-24T11:57:59.706Z,25.59
2023-04-24T12:00:32.769Z,26.63
2023-04-24T12:03:13.365Z,27.07
2023-04-24T12:05:42.166Z,26.94
2023-04-24T12:08:10.534Z,27.00
2023-04-24T12:10:38.520Z,27.59
2023-04-24T12:13:06.651Z,28.26
2023-04-24T12:15:34.771Z,29.12
2023-04-24T12:18:02.816Z,29.71
2023-04-24T12:20:33.403Z,29.94
2023-04-24T12:23:02.299Z,29.61
2023-04-24T12:25:32.900Z,29.46
2023-04-24T12:28:06.956Z,29.89
2023-04-24T12:30:39.421Z,30.48
2023-04-24T12:33:07.269Z,31.38
2023-04-24T12:35:36.823Z,31.93
2023-04-24T12:38:09.148Z,33.64
2023-04-24T12:40:37.218Z,33.95
2023-04-24T12:43:20.704Z,34.77
2023-04-24T12:45:49.507Z,35.67
2023-04-24T12:48:17.479Z,35.97
2023-04-24T12:50:46.752Z,36.63
2023-04-24T12:53:16.399Z,37.83
2023-04-24T12:55:45.747Z,38.12
2023-04-24T12:58:14.161Z,37.89
2023-04-24T13:00:44.472Z,37.99
2023-04-24T13:03:13.307Z,37.98
2023-04-24T13:05:42.216Z,37.98
2023-04-24T13:08:10.355Z,37.67
2023-04-24T13:10:38.253Z,37.66
2023-04-24T13:13:06.087Z,37.91
2023-04-24T13:15:33.968Z,37.99
2023-04-24T13:18:02.037Z,37.81
2023-04-24T13:20:30.237Z,38.01
2023-04-24T13:22:58.051Z,37.64
2023-04-24T13:25:26.165Z,37.18
2023-04-24T13:27:53.900Z,36.52
2023-04-24T13:30:21.910Z,35.43
2023-04-24T13:32:49.657Z,34.96
2023-04-24T13:35:17.510Z,35.08
2023-04-24T13:37:45.477Z,35.58
2023-04-24T13:40:13.329Z,35.81
2023-04-24T13:42:43.934Z,36.39
2023-04-24T13:45:24.170Z,36.27
2023-04-24T13:47:54.755Z,36.43
2023-04-24T13:50:23.050Z,37.19
2023-04-24T13:52:51.619Z,37.83
2023-04-24T13:55:19.430Z,37.20
2023-04-24T13:57:47.368Z,36.59
2023-04-24T14:00:16.146Z,36.17
2023-04-24T14:02:44.147Z,35.82
2023-04-24T14:05:12.455Z,35.25
2023-04-24T14:07:40.333Z,34.19
2023-04-24T14:10:08.568Z,33.41
2023-04-24T14:12:36.349Z,32.36
2023-04-24T14:15:05.932Z,33.62
2023-04-24T14:17:33.731Z,34.86
2023-04-24T14:20:01.713Z,34.57
2023-04-24T14:22:29.567Z,35.26
2023-04-24T14:24:57.431Z,34.67
2023-04-24T14:27:27.214Z,35.69
2023-04-24T14:29:55.063Z,36.00
2023-04-24T14:32:22.904Z,35.49
2023-04-24T14:34:50.714Z,35.65
2023-04-24T14:37:18.612Z,35.76
2023-04-24T14:39:56.234Z,35.49
2023-04-24T14:42:35.072Z,35.46
2023-04-24T14:45:03.475Z,36.37
2023-04-24T14:47:31.526Z,36.94
2023-04-24T14:49:59.563Z,36.59
2023-04-24T14:52:27.436Z,36.64
2023-04-24T14:54:55.790Z,35.38
2023-04-24T14:57:24.349Z,36.08
2023-04-24T14:59:52.421Z,36.23
2023-04-24T15:04:49.251Z,35.13
2023-04-24T15:07:17.163Z,34.91
2023-04-24T15:09:44.973Z,36.35
2023-04-24T15:12:14.351Z,36.16
2023-04-24T15:14:42.376Z,36.94
2023-04-24T15:17:10.389Z,36.00
2023-04-24T15:19:38.201Z,36.00
2023-04-24T15:22:06.091Z,36.79
2023-04-24T15:24:33.823Z,36.96
2023-04-24T15:27:02.714Z,37.33
2023-04-24T15:29:30.748Z,37.53
2023-04-24T15:31:58.919Z,37.30
2023-04-24T15:34:26.725Z,36.71
2023-04-24T15:36:54.647Z,37.26
2023-04-24T15:39:25.315Z,37.19
2023-04-24T15:41:54.163Z,37.57
2023-04-24T15:44:22.872Z,37.76
2023-04-24T15:46:52.443Z,37.54
2023-04-24T15:49:20.206Z,38.14
2023-04-24T15:51:48.032Z,38.34
2023-04-24T15:54:15.864Z,38.56
2023-04-24T15:56:45.369Z,38.31
2023-04-24T15:59:13.369Z,38.56
2023-04-24T16:01:41.294Z,38.74
2023-04-24T16:04:09.233Z,39.28
2023-04-24T16:06:37.293Z,38.89
2023-04-24T16:09:05.165Z,38.85
2023-04-24T16:11:33.909Z,39.21
2023-04-24T16:14:01.910Z,39.17
2023-04-24T16:16:29.811Z,38.82
2023-04-24T16:18:57.958Z,38.36
2023-04-24T16:21:25.684Z,38.29
2023-04-24T16:23:53.546Z,38.76
2023-04-24T16:26:21.649Z,38.76
2023-04-24T16:28:49.669Z,39.08
2023-04-24T16:31:18.055Z,38.77
2023-04-24T16:33:45.887Z,38.59
2023-04-24T16:36:13.618Z,38.68
2023-04-24T16:38:41.344Z,38.50
2023-04-24T16:41:09.293Z,38.74
2023-04-24T16:43:37.308Z,38.79
2023-04-24T16:46:05.245Z,38.68
2023-04-24T16:48:33.550Z,39.09
2023-04-24T16:51:01.502Z,39.00
2023-04-24T16:53:29.272Z,39.34
2023-04-24T16:55:57.135Z,39.58
2023-04-24T16:58:24.939Z,40.24
2023-04-24T17:00:52.777Z,40.35
2023-04-24T17:03:21.029Z,40.23
2023-04-24T17:05:49.758Z,40.66
2023-04-24T17:08:17.983Z,40.86
2023-04-24T17:10:46.966Z,41.18
2023-04-24T17:13:15.105Z,41.31
2023-04-24T17:15:43.057Z,42.23
2023-04-24T17:18:11.359Z,42.17
2023-04-24T17:20:39.347Z,43.11
2023-04-24T17:23:07.264Z,43.21
2023-04-24T17:25:34.996Z,43.39
2023-04-24T17:28:02.978Z,44.24
2023-04-24T17:30:30.788Z,44.35
2023-04-24T17:32:58.579Z,44.92
2023-04-24T17:35:26.472Z,45.19
2023-04-24T17:37:54.753Z,46.36
2023-04-24T17:40:22.888Z,45.74
2023-04-24T17:42:51.052Z,46.24
2023-04-24T17:45:19.496Z,47.18
2023-04-24T17:47:47.415Z,47.06
2023-04-24T17:50:15.984Z,47.29
2023-04-24T17:52:43.819Z,47.45
2023-04-24T17:55:11.638Z,47.88
2023-04-24T17:57:39.620Z,47.97
2023-04-24T18:00:07.983Z,49.35
2023-04-24T18:02:36.586Z,48.38
2023-04-24T18:05:05.094Z,49.33
2023-04-24T18:07:34.101Z,48.49
2023-04-24T18:10:02.002Z,48.80
2023-04-24T18:12:29.773Z,49.35
2023-04-24T18:15:12.826Z,49.51
2023-04-24T18:17:42.044Z,49.93
2023-04-24T18:20:11.484Z,49.97
2023-04-24T18:22:39.709Z,50.88
2023-04-24T18:25:08.220Z,51.03
2023-04-24T18:27:36.857Z,51.12
2023-04-24T18:30:06.719Z,51.31
2023-04-24T18:32:35.127Z,51.97
2023-04-24T18:35:03.974Z,52.13
2023-04-24T18:37:33.559Z,52.45
2023-04-24T18:40:02.498Z,52.35
2023-04-24T18:42:30.299Z,52.89
2023-04-24T18:45:01.679Z,53.29
2023-04-24T18:47:29.637Z,53.51
2023-04-24T18:49:57.400Z,53.42
2023-04-24T18:52:25.983Z,54.00
2023-04-24T18:54:53.782Z,55.20
2023-04-24T18:57:21.653Z,54.88
2023-04-24T18:59:49.617Z,55.23
2023-04-24T19:02:17.691Z,54.41
2023-04-24T19:04:45.842Z,53.28
2023-04-24T19:07:16.405Z,53.19
2023-04-24T19:09:44.329Z,52.99
2023-04-24T19:12:12.111Z,52.73
2023-04-24T19:14:40.006Z,52.46
2023-04-24T19:17:10.105Z,52.54
2023-04-24T19:19:38.246Z,52.40
2023-04-24T19:22:07.882Z,52.26
2023-04-24T19:24:36.116Z,52.29
2023-04-24T19:27:03.929Z,52.35
2023-04-24T19:29:32.079Z,52.12
2023-04-24T19:31:59.968Z,52.25
2023-04-24T19:34:29.407Z,52.42
2023-04-24T19:36:57.132Z,51.97
2023-04-24T19:39:25.137Z,52.09
2023-04-24T19:41:52.994Z,52.16
2023-04-24T19:44:20.932Z,51.96
2023-04-24T19:46:48.675Z,53.08
2023-04-24T19:49:17.132Z,52.88
2023-04-24T19:51:44.854Z,53.51
2023-04-24T19:54:13.112Z,54.00
2023-04-24T19:56:41.034Z,54.76
2023-04-24T19:59:08.926Z,55.41
2023-04-24T20:01:36.851Z,55.71
2023-04-24T20:04:07.814Z,56.23
2023-04-24T20:06:35.781Z,56.46
2023-04-24T20:09:05.901Z,57.01
2023-04-24T20:11:34.002Z,57.87
2023-04-24T20:14:03.698Z,57.27
2023-04-24T20:16:31.989Z,58.21
2023-04-24T20:18:59.939Z,58.27
2023-04-24T20:21:28.642Z,58.21
2023-04-24T20:23:56.857Z,58.57
2023-04-24T20:26:24.690Z,57.84
2023-04-24T20:28:52.652Z,57.61
2023-04-24T20:31:21.343Z,57.96
2023-04-24T20:33:49.198Z,58.48
2023-04-24T20:36:17.014Z,58.79
2023-04-24T20:38:44.730Z,58.91
2023-04-24T20:41:12.758Z,59.84
2023-04-24T20:43:40.820Z,58.93
2023-04-24T20:46:08.876Z,58.79
2023-04-24T20:48:36.716Z,59.15
2023-04-24T20:51:04.589Z,60.17
2023-04-24T20:53:32.330Z,59.50
2023-04-24T20:56:00.183Z,59.64
2023-04-24T20:58:28.152Z,60.03
2023-04-24T21:00:55.990Z,60.17
2023-04-24T21:03:24.104Z,59.75
2023-04-24T21:05:51.946Z,60.31
2023-04-24T21:08:19.712Z,59.89
2023-04-24T21:10:47.521Z,60.18
2023-04-24T21:13:15.389Z,60.61
2023-04-24T21:15:43.556Z,60.46
2023-04-24T21:18:11.489Z,60.38
2023-04-24T21:20:39.415Z,60.40
2023-04-24T21:23:07.307Z,60.46
2023-04-24T21:25:36.869Z,61.58
2023-04-24T21:28:04.945Z,61.56
2023-04-24T21:30:32.868Z,61.78
2023-04-24T21:33:01.070Z,62.43
2023-04-24T21:35:29.016Z,62.06
2023-04-24T21:37:56.819Z,62.16
2023-04-24T21:40:24.649Z,62.83
2023-04-24T21:42:52.913Z,62.72
2023-04-24T21:45:20.843Z,62.98
2023-04-24T21:47:48.629Z,62.81
2023-04-24T21:50:16.568Z,62.95
2023-04-24T21:52:44.496Z,63.22
2023-04-24T21:55:12.198Z,63.33
2023-04-24T21:57:40.199Z,63.45
2023-04-24T22:00:08.718Z,64.79
2023-04-24T22:02:36.576Z,64.11
2023-04-24T22:05:05.497Z,64.02
2023-04-24T22:07:35.243Z,64.52
2023-04-24T22:10:04.711Z,65.08
2023-04-24T22:12:32.489Z,66.12
2023-04-24T22:15:01.066Z,65.33
2023-04-24T22:17:28.891Z,66.16
2023-04-24T22:19:57.406Z,66.08
2023-04-24T22:22:25.462Z,66.66
2023-04-24T22:24:53.462Z,67.23
2023-04-24T22:27:21.531Z,66.99
2023-04-24T22:29:49.273Z,67.53
2023-04-24T22:32:17.061Z,67.17
2023-04-24T22:34:44.894Z,67.77
2023-04-24T22:37:13.341Z,67.41
2023-04-24T22:39:41.158Z,67.86
2023-04-24T22:42:09.111Z,67.78
2023-04-24T22:44:36.988Z,68.47
2023-04-24T22:47:08.358Z,69.58
2023-04-24T22:49:36.524Z,69.23
2023-04-24T22:52:08.209Z,68.69
2023-04-24T22:54:35.992Z,68.75
2023-04-24T22:57:06.181Z,69.09
2023-04-24T22:59:33.967Z,69.87
2023-04-24T23:02:01.932Z,71.22
2023-04-24T23:04:30.281Z,70.32
2023-04-24T23:06:58.079Z,71.23
2023-04-24T23:09:25.828Z,70.87
2023-04-24T23:11:53.560Z,71.70
2023-04-24T23:14:21.872Z,71.12
2023-04-24T23:16:49.700Z,71.67
2023-04-24T23:19:17.463Z,71.38
2023-04-24T23:21:45.254Z,72.08
2023-04-24T23:24:14.089Z,71.78
2023-04-24T23:26:41.999Z,72.40
2023-04-24T23:29:09.918Z,73.65
2023-04-24T23:31:37.755Z,74.21
2023-04-24T23:37:20.979Z,72.60
2023-04-24T23:39:49.656Z,73.66
2023-04-24T23:42:17.608Z,73.79
2023-04-24T23:44:45.526Z,74.01
2023-04-24T23:47:13.436Z,74.03
2023-04-24T23:49:41.147Z,74.17
2023-04-24T23:52:08.993Z,74.36
2023-04-24T23:54:37.096Z,74.77
2023-04-24T23:57:04.961Z,73.99
2023-04-24T23:59:32.729Z,73.17
